sensor_id;sensor_type;location;lat;lon;timestamp;temperature;humidity
3275;DHT22;1649;53.672;10.064;2022-07-18T00:01:01;15.50;99.90
3275;DHT22;1649;53.672;10.064;2022-07-18T00:03:26;15.50;99.90
3275;DHT22;1649;53.672;10.064;2022-07-18T00:05:52;15.50;99.90
3275;DHT22;1649;53.672;10.064;2022-07-18T00:08:17;15.40;99.90
3275;DHT22;1649;53.672;10.064;2022-07-18T00:10:43;15.40;99.90
3275;DHT22;1649;53.672;10.064;2022-07-18T00:13:09;15.40;99.90
3275;DHT22;1649;53.672;10.064;2022-07-18T00:15:36;15.40;99.90
3275;DHT22;1649;53.672;10.064;2022-07-18T00:18:02;15.40;99.90
3275;DHT22;1649;53.672;10.064;2022-07-18T00:20:28;15.40;99.90
3275;DHT22;1649;53.672;10.064;2022-07-18T00:22:54;15.40;99.90
3275;DHT22;1649;53.672;10.064;2022-07-18T00:25:20;15.40;99.90
3275;DHT22;1649;53.672;10.064;2022-07-18T00:27:45;15.40;99.90
3275;DHT22;1649;53.672;10.064;2022-07-18T00:30:11;15.40;99.90
3275;DHT22;1649;53.672;10.064;2022-07-18T00:32:36;15.40;99.90
3275;DHT22;1649;53.672;10.064;2022-07-18T00:35:02;15.50;99.90
3275;DHT22;1649;53.672;10.064;2022-07-18T00:37:28;15.50;99.90
3275;DHT22;1649;53.672;10.064;2022-07-18T00:39:53;15.40;99.90
3275;DHT22;1649;53.672;10.064;2022-07-18T00:42:20;15.50;99.90
3275;DHT22;1649;53.672;10.064;2022-07-18T00:44:46;15.50;99.90
3275;DHT22;1649;53.672;10.064;2022-07-18T00:47:11;15.50;99.90
3275;DHT22;1649;53.672;10.064;2022-07-18T00:49:37;15.40;99.90
3275;DHT22;1649;53.672;10.064;2022-07-18T00:52:03;15.40;99.90
3275;DHT22;1649;53.672;10.064;2022-07-18T00:54:29;15.40;99.90
3275;DHT22;1649;53.672;10.064;2022-07-18T00:56:56;15.40;99.90
3275;DHT22;1649;53.672;10.064;2022-07-18T00:59:22;15.40;99.90
3275;DHT22;1649;53.672;10.064;2022-07-18T01:01:48;15.30;99.90
3275;DHT22;1649;53.672;10.064;2022-07-18T01:04:17;15.40;99.90
3275;DHT22;1649;53.672;10.064;2022-07-18T01:06:43;15.30;99.90
3275;DHT22;1649;53.672;10.064;2022-07-18T01:09:09;15.30;99.90
3275;DHT22;1649;53.672;10.064;2022-07-18T01:11:35;15.30;99.90
3275;DHT22;1649;53.672;10.064;2022-07-18T01:14:03;15.20;99.90
3275;DHT22;1649;53.672;10.064;2022-07-18T01:16:29;15.20;99.90
3275;DHT22;1649;53.672;10.064;2022-07-18T01:18:54;15.20;99.90
3275;DHT22;1649;53.672;10.064;2022-07-18T01:21:20;15.20;99.90
3275;DHT22;1649;53.672;10.064;2022-07-18T01:23:46;15.20;99.90
3275;DHT22;1649;53.672;10.064;2022-07-18T01:26:13;15.10;99.90
3275;DHT22;1649;53.672;10.064;2022-07-18T01:28:39;15.10;99.90
3275;DHT22;1649;53.672;10.064;2022-07-18T01:31:05;15.10;99.90
3275;DHT22;1649;53.672;10.064;2022-07-18T01:33:32;15.00;99.90
3275;DHT22;1649;53.672;10.064;2022-07-18T01:35:59;15.00;99.90
3275;DHT22;1649;53.672;10.064;2022-07-18T01:38:27;14.90;99.90
3275;DHT22;1649;53.672;10.064;2022-07-18T01:40:52;14.90;99.90
3275;DHT22;1649;53.672;10.064;2022-07-18T01:43:18;14.90;99.90
3275;DHT22;1649;53.672;10.064;2022-07-18T01:45:43;14.90;99.90
3275;DHT22;1649;53.672;10.064;2022-07-18T01:48:08;14.90;99.90
3275;DHT22;1649;53.672;10.064;2022-07-18T01:50:34;14.90;99.90
3275;DHT22;1649;53.672;10.064;2022-07-18T01:53:00;14.80;99.90
3275;DHT22;1649;53.672;10.064;2022-07-18T01:55:25;14.80;99.90
3275;DHT22;1649;53.672;10.064;2022-07-18T01:57:50;14.70;99.90
3275;DHT22;1649;53.672;10.064;2022-07-18T02:00:16;14.70;99.90
3275;DHT22;1649;53.672;10.064;2022-07-18T02:02:42;14.70;99.90
3275;DHT22;1649;53.672;10.064;2022-07-18T02:05:08;14.70;99.90
3275;DHT22;1649;53.672;10.064;2022-07-18T02:07:39;14.70;99.90
3275;DHT22;1649;53.672;10.064;2022-07-18T02:10:07;14.70;99.90
3275;DHT22;1649;53.672;10.064;2022-07-18T02:12:32;14.70;99.90
3275;DHT22;1649;53.672;10.064;2022-07-18T02:14:58;14.70;99.90
3275;DHT22;1649;53.672;10.064;2022-07-18T02:17:24;14.70;99.90
3275;DHT22;1649;53.672;10.064;2022-07-18T02:19:49;14.70;99.90
3275;DHT22;1649;53.672;10.064;2022-07-18T02:22:15;14.70;99.90
3275;DHT22;1649;53.672;10.064;2022-07-18T02:24:41;14.70;99.90
3275;DHT22;1649;53.672;10.064;2022-07-18T02:27:07;14.70;99.90
3275;DHT22;1649;53.672;10.064;2022-07-18T02:29:33;14.70;99.90
3275;DHT22;1649;53.672;10.064;2022-07-18T02:31:58;14.70;99.90
3275;DHT22;1649;53.672;10.064;2022-07-18T02:34:24;14.70;99.90
3275;DHT22;1649;53.672;10.064;2022-07-18T02:36:49;14.70;99.90
3275;DHT22;1649;53.672;10.064;2022-07-18T02:39:17;14.70;99.90
3275;DHT22;1649;53.672;10.064;2022-07-18T02:41:43;14.70;99.90
3275;DHT22;1649;53.672;10.064;2022-07-18T02:44:08;14.80;99.90
3275;DHT22;1649;53.672;10.064;2022-07-18T02:46:34;14.80;99.90
3275;DHT22;1649;53.672;10.064;2022-07-18T02:48:59;14.80;99.90
3275;DHT22;1649;53.672;10.064;2022-07-18T02:51:25;14.80;99.90
3275;DHT22;1649;53.672;10.064;2022-07-18T02:53:51;14.80;99.90
3275;DHT22;1649;53.672;10.064;2022-07-18T02:56:17;14.80;99.90
3275;DHT22;1649;53.672;10.064;2022-07-18T02:58:42;14.80;99.90
3275;DHT22;1649;53.672;10.064;2022-07-18T03:01:08;14.80;99.90
3275;DHT22;1649;53.672;10.064;2022-07-18T03:03:33;14.80;99.90
3275;DHT22;1649;53.672;10.064;2022-07-18T03:05:59;14.70;99.90
3275;DHT22;1649;53.672;10.064;2022-07-18T03:08:24;14.70;99.90
3275;DHT22;1649;53.672;10.064;2022-07-18T03:10:50;14.70;99.90
3275;DHT22;1649;53.672;10.064;2022-07-18T03:13:15;14.70;99.90
3275;DHT22;1649;53.672;10.064;2022-07-18T03:15:41;14.70;99.90
3275;DHT22;1649;53.672;10.064;2022-07-18T03:18:06;14.60;99.90
3275;DHT22;1649;53.672;10.064;2022-07-18T03:20:32;14.60;99.90
3275;DHT22;1649;53.672;10.064;2022-07-18T03:22:58;14.60;99.90
3275;DHT22;1649;53.672;10.064;2022-07-18T03:25:24;14.60;99.90
3275;DHT22;1649;53.672;10.064;2022-07-18T03:27:50;14.60;99.90
3275;DHT22;1649;53.672;10.064;2022-07-18T03:30:15;14.60;99.90
3275;DHT22;1649;53.672;10.064;2022-07-18T03:32:41;14.50;99.90
3275;DHT22;1649;53.672;10.064;2022-07-18T03:35:07;14.60;99.90
3275;DHT22;1649;53.672;10.064;2022-07-18T03:37:33;14.50;99.90
3275;DHT22;1649;53.672;10.064;2022-07-18T03:39:58;14.50;99.90
3275;DHT22;1649;53.672;10.064;2022-07-18T03:42:24;14.50;99.90
3275;DHT22;1649;53.672;10.064;2022-07-18T03:44:50;14.40;99.90
3275;DHT22;1649;53.672;10.064;2022-07-18T03:47:15;14.30;99.90
3275;DHT22;1649;53.672;10.064;2022-07-18T03:49:41;14.30;99.90
3275;DHT22;1649;53.672;10.064;2022-07-18T03:52:06;14.30;99.90
3275;DHT22;1649;53.672;10.064;2022-07-18T03:54:32;14.40;99.90
3275;DHT22;1649;53.672;10.064;2022-07-18T03:56:58;14.50;99.90
3275;DHT22;1649;53.672;10.064;2022-07-18T03:59:23;14.50;99.90
3275;DHT22;1649;53.672;10.064;2022-07-18T04:01:49;14.60;99.90
3275;DHT22;1649;53.672;10.064;2022-07-18T04:04:14;14.70;99.90
3275;DHT22;1649;53.672;10.064;2022-07-18T04:06:40;14.70;99.90
3275;DHT22;1649;53.672;10.064;2022-07-18T04:09:05;14.80;99.90
3275;DHT22;1649;53.672;10.064;2022-07-18T04:11:31;14.80;99.90
3275;DHT22;1649;53.672;10.064;2022-07-18T04:13:57;14.80;99.90
3275;DHT22;1649;53.672;10.064;2022-07-18T04:16:23;14.80;99.90
3275;DHT22;1649;53.672;10.064;2022-07-18T04:18:49;14.80;99.90
3275;DHT22;1649;53.672;10.064;2022-07-18T04:21:15;14.80;99.90
3275;DHT22;1649;53.672;10.064;2022-07-18T04:23:42;14.80;99.90
3275;DHT22;1649;53.672;10.064;2022-07-18T04:26:08;14.80;99.90
3275;DHT22;1649;53.672;10.064;2022-07-18T04:28:34;14.70;99.90
3275;DHT22;1649;53.672;10.064;2022-07-18T04:31:00;14.70;99.90
3275;DHT22;1649;53.672;10.064;2022-07-18T04:33:26;14.70;99.90
3275;DHT22;1649;53.672;10.064;2022-07-18T04:35:52;14.70;99.90
3275;DHT22;1649;53.672;10.064;2022-07-18T04:38:17;14.70;99.90
3275;DHT22;1649;53.672;10.064;2022-07-18T04:40:43;14.70;99.90
3275;DHT22;1649;53.672;10.064;2022-07-18T04:43:08;14.70;99.90
3275;DHT22;1649;53.672;10.064;2022-07-18T04:45:35;14.60;99.90
3275;DHT22;1649;53.672;10.064;2022-07-18T04:48:02;14.60;99.90
3275;DHT22;1649;53.672;10.064;2022-07-18T04:50:28;14.70;99.90
3275;DHT22;1649;53.672;10.064;2022-07-18T04:52:55;14.70;99.90
3275;DHT22;1649;53.672;10.064;2022-07-18T04:55:22;14.90;99.90
3275;DHT22;1649;53.672;10.064;2022-07-18T04:57:49;15.00;99.90
3275;DHT22;1649;53.672;10.064;2022-07-18T05:00:17;15.10;99.90
3275;DHT22;1649;53.672;10.064;2022-07-18T05:02:46;15.20;99.90
3275;DHT22;1649;53.672;10.064;2022-07-18T05:05:13;15.30;99.90
3275;DHT22;1649;53.672;10.064;2022-07-18T05:07:39;15.40;99.90
3275;DHT22;1649;53.672;10.064;2022-07-18T05:10:07;15.60;99.90
3275;DHT22;1649;53.672;10.064;2022-07-18T05:12:40;15.80;99.90
3275;DHT22;1649;53.672;10.064;2022-07-18T05:15:07;15.80;99.90
3275;DHT22;1649;53.672;10.064;2022-07-18T05:17:34;15.90;99.90
3275;DHT22;1649;53.672;10.064;2022-07-18T05:20:00;16.00;99.90
3275;DHT22;1649;53.672;10.064;2022-07-18T05:22:25;16.10;99.90
3275;DHT22;1649;53.672;10.064;2022-07-18T05:24:52;16.30;99.90
3275;DHT22;1649;53.672;10.064;2022-07-18T05:27:17;16.40;99.90
3275;DHT22;1649;53.672;10.064;2022-07-18T05:29:43;16.40;99.90
3275;DHT22;1649;53.672;10.064;2022-07-18T05:32:09;16.50;99.90
3275;DHT22;1649;53.672;10.064;2022-07-18T05:34:35;16.50;99.90
3275;DHT22;1649;53.672;10.064;2022-07-18T05:37:01;16.50;99.90
3275;DHT22;1649;53.672;10.064;2022-07-18T05:39:26;16.50;99.90
3275;DHT22;1649;53.672;10.064;2022-07-18T05:41:52;16.50;99.90
3275;DHT22;1649;53.672;10.064;2022-07-18T05:44:18;16.50;99.90
3275;DHT22;1649;53.672;10.064;2022-07-18T05:46:48;16.60;99.90
3275;DHT22;1649;53.672;10.064;2022-07-18T05:49:14;16.60;99.90
3275;DHT22;1649;53.672;10.064;2022-07-18T05:51:40;16.70;99.90
3275;DHT22;1649;53.672;10.064;2022-07-18T05:54:06;16.70;99.90
3275;DHT22;1649;53.672;10.064;2022-07-18T05:56:31;16.80;99.90
3275;DHT22;1649;53.672;10.064;2022-07-18T05:58:57;16.90;99.90
3275;DHT22;1649;53.672;10.064;2022-07-18T06:01:22;17.00;99.90
3275;DHT22;1649;53.672;10.064;2022-07-18T06:03:48;17.00;99.90
3275;DHT22;1649;53.672;10.064;2022-07-18T06:06:14;17.20;99.90
3275;DHT22;1649;53.672;10.064;2022-07-18T06:08:40;17.40;99.90
3275;DHT22;1649;53.672;10.064;2022-07-18T06:11:06;17.50;99.90
3275;DHT22;1649;53.672;10.064;2022-07-18T06:13:34;17.60;99.90
3275;DHT22;1649;53.672;10.064;2022-07-18T06:15:59;17.70;99.90
3275;DHT22;1649;53.672;10.064;2022-07-18T06:18:25;17.80;99.90
3275;DHT22;1649;53.672;10.064;2022-07-18T06:20:50;17.90;99.90
3275;DHT22;1649;53.672;10.064;2022-07-18T06:23:16;18.00;99.90
3275;DHT22;1649;53.672;10.064;2022-07-18T06:25:41;18.00;99.90
3275;DHT22;1649;53.672;10.064;2022-07-18T06:28:07;18.10;99.90
3275;DHT22;1649;53.672;10.064;2022-07-18T06:30:32;18.20;99.90
3275;DHT22;1649;53.672;10.064;2022-07-18T06:32:58;18.30;99.90
3275;DHT22;1649;53.672;10.064;2022-07-18T06:35:23;18.40;99.90
3275;DHT22;1649;53.672;10.064;2022-07-18T06:37:49;18.60;99.90
3275;DHT22;1649;53.672;10.064;2022-07-18T06:40:14;18.90;99.90
3275;DHT22;1649;53.672;10.064;2022-07-18T06:42:40;18.90;99.90
3275;DHT22;1649;53.672;10.064;2022-07-18T06:45:06;19.20;99.90
3275;DHT22;1649;53.672;10.064;2022-07-18T06:47:32;19.30;99.90
3275;DHT22;1649;53.672;10.064;2022-07-18T06:49:57;19.50;99.90
3275;DHT22;1649;53.672;10.064;2022-07-18T06:52:23;19.70;99.90
3275;DHT22;1649;53.672;10.064;2022-07-18T06:54:48;19.90;99.90
3275;DHT22;1649;53.672;10.064;2022-07-18T06:57:14;20.10;99.90
3275;DHT22;1649;53.672;10.064;2022-07-18T06:59:39;20.20;99.90
3275;DHT22;1649;53.672;10.064;2022-07-18T07:02:05;20.30;99.90
3275;DHT22;1649;53.672;10.064;2022-07-18T07:04:30;20.20;99.90
3275;DHT22;1649;53.672;10.064;2022-07-18T07:06:56;20.30;99.90
3275;DHT22;1649;53.672;10.064;2022-07-18T07:09:21;20.60;99.90
3275;DHT22;1649;53.672;10.064;2022-07-18T07:11:47;20.70;99.90
3275;DHT22;1649;53.672;10.064;2022-07-18T07:14:12;21.00;99.90
3275;DHT22;1649;53.672;10.064;2022-07-18T07:16:37;21.10;99.90
3275;DHT22;1649;53.672;10.064;2022-07-18T07:19:03;21.30;99.90
3275;DHT22;1649;53.672;10.064;2022-07-18T07:21:28;21.30;99.90
3275;DHT22;1649;53.672;10.064;2022-07-18T07:23:54;22.10;99.90
3275;DHT22;1649;53.672;10.064;2022-07-18T07:26:19;22.90;98.80
3275;DHT22;1649;53.672;10.064;2022-07-18T07:28:45;23.40;96.90
3275;DHT22;1649;53.672;10.064;2022-07-18T07:31:11;24.00;95.30
3275;DHT22;1649;53.672;10.064;2022-07-18T07:33:36;24.60;94.90
3275;DHT22;1649;53.672;10.064;2022-07-18T07:36:02;25.10;93.90
3275;DHT22;1649;53.672;10.064;2022-07-18T07:38:28;25.10;92.70
3275;DHT22;1649;53.672;10.064;2022-07-18T07:40:55;24.90;92.00
3275;DHT22;1649;53.672;10.064;2022-07-18T07:43:21;24.40;91.40
3275;DHT22;1649;53.672;10.064;2022-07-18T07:45:48;24.20;93.00
3275;DHT22;1649;53.672;10.064;2022-07-18T07:48:14;24.30;91.80
3275;DHT22;1649;53.672;10.064;2022-07-18T07:50:40;24.70;92.30
3275;DHT22;1649;53.672;10.064;2022-07-18T07:53:06;24.90;90.30
3275;DHT22;1649;53.672;10.064;2022-07-18T07:55:32;25.30;90.60
3275;DHT22;1649;53.672;10.064;2022-07-18T07:57:58;25.90;88.70
3275;DHT22;1649;53.672;10.064;2022-07-18T08:00:23;26.30;90.40
3275;DHT22;1649;53.672;10.064;2022-07-18T08:02:58;26.20;88.40
3275;DHT22;1649;53.672;10.064;2022-07-18T08:05:24;26.10;87.20
3275;DHT22;1649;53.672;10.064;2022-07-18T08:07:50;25.70;87.80
3275;DHT22;1649;53.672;10.064;2022-07-18T08:10:16;25.30;88.60
3275;DHT22;1649;53.672;10.064;2022-07-18T08:12:41;25.50;90.10
3275;DHT22;1649;53.672;10.064;2022-07-18T08:15:08;25.60;88.50
3275;DHT22;1649;53.672;10.064;2022-07-18T08:17:34;25.70;87.60
3275;DHT22;1649;53.672;10.064;2022-07-18T08:19:59;25.90;87.10
3275;DHT22;1649;53.672;10.064;2022-07-18T08:22:25;26.40;86.30
3275;DHT22;1649;53.672;10.064;2022-07-18T08:24:50;26.80;85.00
3275;DHT22;1649;53.672;10.064;2022-07-18T08:27:16;27.20;83.40
3275;DHT22;1649;53.672;10.064;2022-07-18T08:29:41;27.30;83.30
3275;DHT22;1649;53.672;10.064;2022-07-18T08:32:07;27.50;84.60
3275;DHT22;1649;53.672;10.064;2022-07-18T08:34:33;27.70;85.70
3275;DHT22;1649;53.672;10.064;2022-07-18T08:36:59;28.10;78.90
3275;DHT22;1649;53.672;10.064;2022-07-18T08:39:24;28.40;82.70
3275;DHT22;1649;53.672;10.064;2022-07-18T08:41:51;28.80;80.30
3275;DHT22;1649;53.672;10.064;2022-07-18T08:44:17;29.60;76.40
3275;DHT22;1649;53.672;10.064;2022-07-18T08:46:49;28.60;74.90
3275;DHT22;1649;53.672;10.064;2022-07-18T08:49:15;28.10;77.60
3275;DHT22;1649;53.672;10.064;2022-07-18T08:51:42;27.70;77.20
3275;DHT22;1649;53.672;10.064;2022-07-18T08:54:08;27.80;79.30
3275;DHT22;1649;53.672;10.064;2022-07-18T08:56:33;28.00;77.80
3275;DHT22;1649;53.672;10.064;2022-07-18T08:59:03;27.70;81.10
3275;DHT22;1649;53.672;10.064;2022-07-18T09:01:29;27.40;78.60
3275;DHT22;1649;53.672;10.064;2022-07-18T09:03:55;27.20;82.10
3275;DHT22;1649;53.672;10.064;2022-07-18T09:06:47;27.70;81.40
3275;DHT22;1649;53.672;10.064;2022-07-18T09:09:14;28.40;77.30
3275;DHT22;1649;53.672;10.064;2022-07-18T09:11:54;28.70;76.80
3275;DHT22;1649;53.672;10.064;2022-07-18T09:14:28;29.10;80.20
3275;DHT22;1649;53.672;10.064;2022-07-18T09:17:24;29.10;74.60
3275;DHT22;1649;53.672;10.064;2022-07-18T09:22:33;29.40;72.60
3275;DHT22;1649;53.672;10.064;2022-07-18T09:27:37;29.50;73.80
3275;DHT22;1649;53.672;10.064;2022-07-18T09:32:39;29.10;76.40
3275;DHT22;1649;53.672;10.064;2022-07-18T09:35:06;29.20;73.80
3275;DHT22;1649;53.672;10.064;2022-07-18T09:37:32;29.00;72.00
3275;DHT22;1649;53.672;10.064;2022-07-18T09:40:19;29.50;71.80
3275;DHT22;1649;53.672;10.064;2022-07-18T09:42:53;29.40;73.90
3275;DHT22;1649;53.672;10.064;2022-07-18T09:45:34;29.90;74.40
3275;DHT22;1649;53.672;10.064;2022-07-18T09:48:05;30.90;73.30
3275;DHT22;1649;53.672;10.064;2022-07-18T09:50:36;30.90;66.30
3275;DHT22;1649;53.672;10.064;2022-07-18T09:53:32;30.90;75.90
3275;DHT22;1649;53.672;10.064;2022-07-18T09:56:11;31.20;73.60
3275;DHT22;1649;53.672;10.064;2022-07-18T09:58:42;31.50;67.10
3275;DHT22;1649;53.672;10.064;2022-07-18T10:01:14;31.40;70.30
3275;DHT22;1649;53.672;10.064;2022-07-18T10:03:40;31.40;66.50
3275;DHT22;1649;53.672;10.064;2022-07-18T10:06:06;31.30;65.70
3275;DHT22;1649;53.672;10.064;2022-07-18T10:08:33;31.00;65.80
3275;DHT22;1649;53.672;10.064;2022-07-18T10:11:01;30.80;71.50
3275;DHT22;1649;53.672;10.064;2022-07-18T10:13:29;31.10;67.70
3275;DHT22;1649;53.672;10.064;2022-07-18T10:15:55;30.60;69.80
3275;DHT22;1649;53.672;10.064;2022-07-18T10:18:25;30.50;73.40
3275;DHT22;1649;53.672;10.064;2022-07-18T10:20:55;30.70;67.60
3275;DHT22;1649;53.672;10.064;2022-07-18T10:23:27;30.80;70.90
3275;DHT22;1649;53.672;10.064;2022-07-18T10:26:23;30.70;70.40
3275;DHT22;1649;53.672;10.064;2022-07-18T10:31:22;30.50;68.70
3275;DHT22;1649;53.672;10.064;2022-07-18T10:33:48;30.90;66.40
3275;DHT22;1649;53.672;10.064;2022-07-18T10:41:28;31.20;62.40
3275;DHT22;1649;53.672;10.064;2022-07-18T10:43:54;30.90;62.30
3275;DHT22;1649;53.672;10.064;2022-07-18T10:46:19;30.70;64.40
3275;DHT22;1649;53.672;10.064;2022-07-18T10:48:53;30.40;64.20
3275;DHT22;1649;53.672;10.064;2022-07-18T10:51:19;30.40;67.10
3275;DHT22;1649;53.672;10.064;2022-07-18T10:58:58;28.80;66.00
3275;DHT22;1649;53.672;10.064;2022-07-18T11:01:25;28.30;67.90
3275;DHT22;1649;53.672;10.064;2022-07-18T11:04:25;28.30;67.80
3275;DHT22;1649;53.672;10.064;2022-07-18T11:07:04;28.40;70.00
3275;DHT22;1649;53.672;10.064;2022-07-18T11:09:35;28.60;69.90
3275;DHT22;1649;53.672;10.064;2022-07-18T11:12:18;28.60;72.80
3275;DHT22;1649;53.672;10.064;2022-07-18T11:17:53;28.30;67.30
3275;DHT22;1649;53.672;10.064;2022-07-18T11:20:39;28.30;68.60
3275;DHT22;1649;53.672;10.064;2022-07-18T11:23:23;27.80;69.70
3275;DHT22;1649;53.672;10.064;2022-07-18T11:25:51;28.10;70.30
3275;DHT22;1649;53.672;10.064;2022-07-18T11:28:17;28.40;68.10
3275;DHT22;1649;53.672;10.064;2022-07-18T11:30:44;28.40;68.50
3275;DHT22;1649;53.672;10.064;2022-07-18T11:33:28;28.40;67.70
3275;DHT22;1649;53.672;10.064;2022-07-18T11:36:05;28.50;67.30
3275;DHT22;1649;53.672;10.064;2022-07-18T11:38:32;28.50;68.40
3275;DHT22;1649;53.672;10.064;2022-07-18T11:40:57;28.60;67.90
3275;DHT22;1649;53.672;10.064;2022-07-18T11:43:24;28.60;69.50
3275;DHT22;1649;53.672;10.064;2022-07-18T11:48:30;28.10;66.90
3275;DHT22;1649;53.672;10.064;2022-07-18T11:50:55;27.90;65.80
3275;DHT22;1649;53.672;10.064;2022-07-18T11:53:21;27.80;67.60
3275;DHT22;1649;53.672;10.064;2022-07-18T11:55:47;27.80;67.30
3275;DHT22;1649;53.672;10.064;2022-07-18T11:58:15;28.00;70.10
3275;DHT22;1649;53.672;10.064;2022-07-18T12:00:42;28.30;66.90
3275;DHT22;1649;53.672;10.064;2022-07-18T12:03:21;28.30;67.20
3275;DHT22;1649;53.672;10.064;2022-07-18T12:05:50;28.30;68.40
3275;DHT22;1649;53.672;10.064;2022-07-18T12:08:33;28.40;68.30
3275;DHT22;1649;53.672;10.064;2022-07-18T12:13:50;28.20;69.90
3275;DHT22;1649;53.672;10.064;2022-07-18T12:16:32;28.10;71.30
3275;DHT22;1649;53.672;10.064;2022-07-18T12:24:28;28.60;70.70
3275;DHT22;1649;53.672;10.064;2022-07-18T12:27:17;28.70;73.20
3275;DHT22;1649;53.672;10.064;2022-07-18T12:30:12;29.10;69.70
3275;DHT22;1649;53.672;10.064;2022-07-18T12:32:50;29.20;69.40
3275;DHT22;1649;53.672;10.064;2022-07-18T12:35:22;29.40;66.60
3275;DHT22;1649;53.672;10.064;2022-07-18T12:37:58;29.60;67.80
3275;DHT22;1649;53.672;10.064;2022-07-18T12:40:40;30.10;68.20
3275;DHT22;1649;53.672;10.064;2022-07-18T12:43:11;30.40;66.70
3275;DHT22;1649;53.672;10.064;2022-07-18T12:45:37;30.60;65.30
3275;DHT22;1649;53.672;10.064;2022-07-18T12:48:04;30.30;61.60
3275;DHT22;1649;53.672;10.064;2022-07-18T12:50:30;29.90;62.90
3275;DHT22;1649;53.672;10.064;2022-07-18T12:52:57;29.60;63.60
3275;DHT22;1649;53.672;10.064;2022-07-18T12:55:23;29.20;64.50
3275;DHT22;1649;53.672;10.064;2022-07-18T12:57:49;28.90;66.10
3275;DHT22;1649;53.672;10.064;2022-07-18T13:00:15;28.80;64.70
3275;DHT22;1649;53.672;10.064;2022-07-18T13:02:44;28.60;65.20
3275;DHT22;1649;53.672;10.064;2022-07-18T13:05:10;28.40;64.90
3275;DHT22;1649;53.672;10.064;2022-07-18T13:07:36;28.40;68.40
3275;DHT22;1649;53.672;10.064;2022-07-18T13:10:02;28.40;66.70
3275;DHT22;1649;53.672;10.064;2022-07-18T13:12:28;28.40;67.70
3275;DHT22;1649;53.672;10.064;2022-07-18T13:14:53;28.60;67.10
3275;DHT22;1649;53.672;10.064;2022-07-18T13:17:19;28.80;67.60
3275;DHT22;1649;53.672;10.064;2022-07-18T13:19:44;29.20;68.00
3275;DHT22;1649;53.672;10.064;2022-07-18T13:22:11;29.50;68.80
3275;DHT22;1649;53.672;10.064;2022-07-18T13:24:36;29.70;68.40
3275;DHT22;1649;53.672;10.064;2022-07-18T13:27:05;29.80;69.00
3275;DHT22;1649;53.672;10.064;2022-07-18T13:29:31;29.90;64.20
3275;DHT22;1649;53.672;10.064;2022-07-18T13:31:56;30.10;64.60
3275;DHT22;1649;53.672;10.064;2022-07-18T13:34:22;29.80;66.60
3275;DHT22;1649;53.672;10.064;2022-07-18T13:36:50;29.90;67.20
3275;DHT22;1649;53.672;10.064;2022-07-18T13:39:16;30.10;66.10
3275;DHT22;1649;53.672;10.064;2022-07-18T13:41:42;30.10;65.50
3275;DHT22;1649;53.672;10.064;2022-07-18T13:44:07;30.30;65.60
3275;DHT22;1649;53.672;10.064;2022-07-18T13:46:33;30.30;66.90
3275;DHT22;1649;53.672;10.064;2022-07-18T13:48:58;30.20;64.40
3275;DHT22;1649;53.672;10.064;2022-07-18T13:51:24;30.20;64.60
3275;DHT22;1649;53.672;10.064;2022-07-18T13:53:49;29.90;64.00
3275;DHT22;1649;53.672;10.064;2022-07-18T13:56:15;29.80;64.00
3275;DHT22;1649;53.672;10.064;2022-07-18T13:58:40;29.80;66.50
3275;DHT22;1649;53.672;10.064;2022-07-18T14:01:06;29.80;64.40
3275;DHT22;1649;53.672;10.064;2022-07-18T14:03:32;30.00;63.60
3275;DHT22;1649;53.672;10.064;2022-07-18T14:05:57;30.20;64.00
3275;DHT22;1649;53.672;10.064;2022-07-18T14:08:23;30.30;63.90
3275;DHT22;1649;53.672;10.064;2022-07-18T14:10:48;30.50;66.30
3275;DHT22;1649;53.672;10.064;2022-07-18T14:13:14;30.60;65.20
3275;DHT22;1649;53.672;10.064;2022-07-18T14:15:39;30.60;66.00
3275;DHT22;1649;53.672;10.064;2022-07-18T14:18:05;30.70;62.20
3275;DHT22;1649;53.672;10.064;2022-07-18T14:20:31;30.70;61.20
3275;DHT22;1649;53.672;10.064;2022-07-18T14:22:57;30.80;62.20
3275;DHT22;1649;53.672;10.064;2022-07-18T14:25:22;30.80;62.60
3275;DHT22;1649;53.672;10.064;2022-07-18T14:27:48;30.80;62.40
3275;DHT22;1649;53.672;10.064;2022-07-18T14:30:15;30.80;58.80
3275;DHT22;1649;53.672;10.064;2022-07-18T14:32:41;30.50;57.30
3275;DHT22;1649;53.672;10.064;2022-07-18T14:35:09;30.50;58.80
3275;DHT22;1649;53.672;10.064;2022-07-18T14:37:34;30.30;56.60
3275;DHT22;1649;53.672;10.064;2022-07-18T14:40:00;30.10;58.50
3275;DHT22;1649;53.672;10.064;2022-07-18T14:42:26;29.90;60.90
3275;DHT22;1649;53.672;10.064;2022-07-18T14:44:53;29.90;60.90
3275;DHT22;1649;53.672;10.064;2022-07-18T14:47:18;29.80;60.90
3275;DHT22;1649;53.672;10.064;2022-07-18T14:49:44;29.80;62.50
3275;DHT22;1649;53.672;10.064;2022-07-18T14:52:10;29.70;61.00
3275;DHT22;1649;53.672;10.064;2022-07-18T14:54:35;29.70;62.10
3275;DHT22;1649;53.672;10.064;2022-07-18T14:57:01;29.70;60.80
3275;DHT22;1649;53.672;10.064;2022-07-18T14:59:30;29.60;61.70
3275;DHT22;1649;53.672;10.064;2022-07-18T15:01:56;29.40;64.20
3275;DHT22;1649;53.672;10.064;2022-07-18T15:04:24;29.50;61.90
3275;DHT22;1649;53.672;10.064;2022-07-18T15:06:50;29.50;62.40
3275;DHT22;1649;53.672;10.064;2022-07-18T15:09:15;29.50;63.40
3275;DHT22;1649;53.672;10.064;2022-07-18T15:11:41;29.60;65.90
3275;DHT22;1649;53.672;10.064;2022-07-18T15:14:07;29.70;63.50
3275;DHT22;1649;53.672;10.064;2022-07-18T15:16:32;30.00;64.10
3275;DHT22;1649;53.672;10.064;2022-07-18T15:18:58;30.30;62.40
3275;DHT22;1649;53.672;10.064;2022-07-18T15:21:23;30.40;59.90
3275;DHT22;1649;53.672;10.064;2022-07-18T15:23:49;30.30;61.70
3275;DHT22;1649;53.672;10.064;2022-07-18T15:26:14;30.30;60.40
3275;DHT22;1649;53.672;10.064;2022-07-18T15:28:40;30.10;61.40
3275;DHT22;1649;53.672;10.064;2022-07-18T15:31:06;30.00;62.70
3275;DHT22;1649;53.672;10.064;2022-07-18T15:33:32;29.90;62.90
3275;DHT22;1649;53.672;10.064;2022-07-18T15:35:58;29.90;62.20
3275;DHT22;1649;53.672;10.064;2022-07-18T15:38:23;29.90;61.10
3275;DHT22;1649;53.672;10.064;2022-07-18T15:40:49;29.90;61.70
3275;DHT22;1649;53.672;10.064;2022-07-18T15:43:14;29.90;62.10
3275;DHT22;1649;53.672;10.064;2022-07-18T15:45:40;30.00;62.30
3275;DHT22;1649;53.672;10.064;2022-07-18T15:48:05;29.70;59.50
3275;DHT22;1649;53.672;10.064;2022-07-18T15:50:31;29.70;62.70
3275;DHT22;1649;53.672;10.064;2022-07-18T15:52:57;29.70;60.40
3275;DHT22;1649;53.672;10.064;2022-07-18T15:55:23;29.70;60.70
3275;DHT22;1649;53.672;10.064;2022-07-18T15:57:48;29.80;60.90
3275;DHT22;1649;53.672;10.064;2022-07-18T16:00:14;29.80;60.10
3275;DHT22;1649;53.672;10.064;2022-07-18T16:02:40;29.70;59.70
3275;DHT22;1649;53.672;10.064;2022-07-18T16:05:05;29.60;59.90
3275;DHT22;1649;53.672;10.064;2022-07-18T16:07:31;29.50;59.90
3275;DHT22;1649;53.672;10.064;2022-07-18T16:09:57;29.40;61.70
3275;DHT22;1649;53.672;10.064;2022-07-18T16:12:22;29.10;61.70
3275;DHT22;1649;53.672;10.064;2022-07-18T16:14:48;28.90;61.70
3275;DHT22;1649;53.672;10.064;2022-07-18T16:17:13;28.80;62.80
3275;DHT22;1649;53.672;10.064;2022-07-18T16:19:39;28.70;61.10